sensor_id;sensor_type;location;lat;lon;timestamp;P1;durP1;ratioP1;P2;durP2;ratioP2
11671;SDS011;5892;43.412;24.612;2022-11-18T00:01:08;10.50;;;8.53;;
11671;SDS011;5892;43.412;24.612;2022-11-18T00:03:36;14.27;;;10.13;;
11671;SDS011;5892;43.412;24.612;2022-11-18T00:06:04;12.10;;;8.30;;
11671;SDS011;5892;43.412;24.612;2022-11-18T00:08:32;10.67;;;8.03;;
11671;SDS011;5892;43.412;24.612;2022-11-18T00:11:03;11.03;;;8.10;;
11671;SDS011;5892;43.412;24.612;2022-11-18T00:13:30;11.10;;;8.90;;
11671;SDS011;5892;43.412;24.612;2022-11-18T00:16:16;11.53;;;8.97;;
11671;SDS011;5892;43.412;24.612;2022-11-18T00:18:43;13.20;;;10.27;;
11671;SDS011;5892;43.412;24.612;2022-11-18T00:21:10;13.50;;;9.73;;
11671;SDS011;5892;43.412;24.612;2022-11-18T00:23:37;11.10;;;8.97;;
11671;SDS011;5892;43.412;24.612;2022-11-18T00:26:05;11.27;;;8.47;;
11671;SDS011;5892;43.412;24.612;2022-11-18T00:28:34;7.20;;;6.50;;
11671;SDS011;5892;43.412;24.612;2022-11-18T00:31:01;7.73;;;6.93;;
11671;SDS011;5892;43.412;24.612;2022-11-18T00:33:30;9.07;;;6.43;;
11671;SDS011;5892;43.412;24.612;2022-11-18T00:35:58;7.63;;;6.83;;
11671;SDS011;5892;43.412;24.612;2022-11-18T00:38:25;6.20;;;5.43;;
11671;SDS011;5892;43.412;24.612;2022-11-18T00:40:59;6.10;;;5.50;;
11671;SDS011;5892;43.412;24.612;2022-11-18T00:43:26;12.07;;;9.33;;
11671;SDS011;5892;43.412;24.612;2022-11-18T00:45:53;8.37;;;7.03;;
11671;SDS011;5892;43.412;24.612;2022-11-18T00:48:21;8.10;;;6.17;;
11671;SDS011;5892;43.412;24.612;2022-11-18T00:50:50;5.97;;;5.13;;
11671;SDS011;5892;43.412;24.612;2022-11-18T00:53:18;6.57;;;5.40;;
11671;SDS011;5892;43.412;24.612;2022-11-18T00:55:47;5.33;;;4.60;;
11671;SDS011;5892;43.412;24.612;2022-11-18T00:58:13;6.00;;;5.03;;
11671;SDS011;5892;43.412;24.612;2022-11-18T01:00:41;6.47;;;5.87;;
11671;SDS011;5892;43.412;24.612;2022-11-18T01:03:08;7.70;;;5.70;;
11671;SDS011;5892;43.412;24.612;2022-11-18T01:05:36;6.10;;;5.50;;
11671;SDS011;5892;43.412;24.612;2022-11-18T01:08:05;6.80;;;5.73;;
11671;SDS011;5892;43.412;24.612;2022-11-18T01:10:33;6.40;;;5.60;;
11671;SDS011;5892;43.412;24.612;2022-11-18T01:13:00;6.13;;;5.53;;
11671;SDS011;5892;43.412;24.612;2022-11-18T01:15:46;5.97;;;5.40;;
11671;SDS011;5892;43.412;24.612;2022-11-18T01:18:15;6.73;;;5.53;;
11671;SDS011;5892;43.412;24.612;2022-11-18T01:20:42;8.67;;;6.27;;
11671;SDS011;5892;43.412;24.612;2022-11-18T01:23:11;7.97;;;5.13;;
11671;SDS011;5892;43.412;24.612;2022-11-18T01:25:40;6.03;;;5.30;;
11671;SDS011;5892;43.412;24.612;2022-11-18T01:28:08;7.30;;;5.60;;
11671;SDS011;5892;43.412;24.612;2022-11-18T01:30:36;6.03;;;5.43;;
11671;SDS011;5892;43.412;24.612;2022-11-18T01:33:04;5.53;;;5.03;;
11671;SDS011;5892;43.412;24.612;2022-11-18T01:35:33;6.20;;;5.60;;
11671;SDS011;5892;43.412;24.612;2022-11-18T01:38:00;7.83;;;5.60;;
11671;SDS011;5892;43.412;24.612;2022-11-18T01:40:29;6.60;;;5.87;;
11671;SDS011;5892;43.412;24.612;2022-11-18T01:42:56;5.60;;;5.10;;
11671;SDS011;5892;43.412;24.612;2022-11-18T01:45:24;5.77;;;5.27;;
11671;SDS011;5892;43.412;24.612;2022-11-18T01:47:58;9.57;;;6.00;;
11671;SDS011;5892;43.412;24.612;2022-11-18T01:50:30;7.43;;;6.37;;
11671;SDS011;5892;43.412;24.612;2022-11-18T01:53:00;32.83;;;14.07;;
11671;SDS011;5892;43.412;24.612;2022-11-18T01:55:33;6.70;;;5.87;;
11671;SDS011;5892;43.412;24.612;2022-11-18T01:58:05;23.67;;;11.53;;
11671;SDS011;5892;43.412;24.612;2022-11-18T02:00:36;9.63;;;7.30;;
11671;SDS011;5892;43.412;24.612;2022-11-18T02:03:03;8.97;;;6.57;;
11671;SDS011;5892;43.412;24.612;2022-11-18T02:05:31;5.40;;;4.90;;
11671;SDS011;5892;43.412;24.612;2022-11-18T02:07:59;8.23;;;5.20;;
11671;SDS011;5892;43.412;24.612;2022-11-18T02:10:27;6.83;;;5.07;;
11671;SDS011;5892;43.412;24.612;2022-11-18T02:12:55;6.07;;;5.47;;
11671;SDS011;5892;43.412;24.612;2022-11-18T02:15:25;5.67;;;4.97;;
11671;SDS011;5892;43.412;24.612;2022-11-18T02:18:06;6.03;;;5.27;;
11671;SDS011;5892;43.412;24.612;2022-11-18T02:20:40;5.63;;;4.97;;
11671;SDS011;5892;43.412;24.612;2022-11-18T02:26:35;5.43;;;4.93;;
11671;SDS011;5892;43.412;24.612;2022-11-18T02:29:18;5.93;;;5.20;;
11671;SDS011;5892;43.412;24.612;2022-11-18T02:31:51;5.60;;;5.00;;
11671;SDS011;5892;43.412;24.612;2022-11-18T02:34:24;6.47;;;5.87;;
11671;SDS011;5892;43.412;24.612;2022-11-18T02:37:02;6.03;;;5.50;;
11671;SDS011;5892;43.412;24.612;2022-11-18T02:39:38;6.17;;;5.20;;
11671;SDS011;5892;43.412;24.612;2022-11-18T02:42:11;7.63;;;5.50;;
11671;SDS011;5892;43.412;24.612;2022-11-18T02:44:48;6.97;;;6.27;;
11671;SDS011;5892;43.412;24.612;2022-11-18T02:47:18;5.70;;;5.10;;
11671;SDS011;5892;43.412;24.612;2022-11-18T02:49:48;7.57;;;5.07;;
11671;SDS011;5892;43.412;24.612;2022-11-18T02:52:19;6.30;;;4.70;;
11671;SDS011;5892;43.412;24.612;2022-11-18T02:54:48;5.10;;;4.60;;
11671;SDS011;5892;43.412;24.612;2022-11-18T02:57:18;5.70;;;4.73;;
11671;SDS011;5892;43.412;24.612;2022-11-18T02:59:48;5.70;;;4.10;;
11671;SDS011;5892;43.412;24.612;2022-11-18T03:02:15;5.10;;;4.60;;
11671;SDS011;5892;43.412;24.612;2022-11-18T03:04:44;4.60;;;4.20;;
11671;SDS011;5892;43.412;24.612;2022-11-18T03:07:14;5.10;;;4.60;;
11671;SDS011;5892;43.412;24.612;2022-11-18T03:09:49;4.60;;;4.20;;
11671;SDS011;5892;43.412;24.612;2022-11-18T03:12:21;6.93;;;4.70;;
11671;SDS011;5892;43.412;24.612;2022-11-18T03:15:00;6.17;;;4.87;;
11671;SDS011;5892;43.412;24.612;2022-11-18T03:17:37;5.50;;;4.87;;
11671;SDS011;5892;43.412;24.612;2022-11-18T03:20:14;5.57;;;4.87;;
11671;SDS011;5892;43.412;24.612;2022-11-18T03:22:48;6.00;;;4.37;;
11671;SDS011;5892;43.412;24.612;2022-11-18T03:25:21;4.50;;;4.10;;
11671;SDS011;5892;43.412;24.612;2022-11-18T03:27:55;4.87;;;4.47;;
11671;SDS011;5892;43.412;24.612;2022-11-18T03:30:33;6.57;;;4.70;;
11671;SDS011;5892;43.412;24.612;2022-11-18T03:33:03;7.53;;;4.30;;
11671;SDS011;5892;43.412;24.612;2022-11-18T03:35:34;4.90;;;3.97;;
11671;SDS011;5892;43.412;24.612;2022-11-18T03:38:06;5.00;;;4.50;;
11671;SDS011;5892;43.412;24.612;2022-11-18T03:40:37;4.67;;;4.10;;
11671;SDS011;5892;43.412;24.612;2022-11-18T03:43:08;4.73;;;4.33;;
11671;SDS011;5892;43.412;24.612;2022-11-18T03:45:41;4.60;;;4.20;;
11671;SDS011;5892;43.412;24.612;2022-11-18T03:48:11;5.87;;;4.33;;
11671;SDS011;5892;43.412;24.612;2022-11-18T03:50:43;4.83;;;4.20;;
11671;SDS011;5892;43.412;24.612;2022-11-18T03:53:13;5.07;;;4.50;;
11671;SDS011;5892;43.412;24.612;2022-11-18T03:55:43;5.23;;;4.73;;
11671;SDS011;5892;43.412;24.612;2022-11-18T03:58:15;6.83;;;4.97;;
11671;SDS011;5892;43.412;24.612;2022-11-18T04:00:48;5.33;;;4.73;;
11671;SDS011;5892;43.412;24.612;2022-11-18T04:03:22;6.23;;;5.27;;
11671;SDS011;5892;43.412;24.612;2022-11-18T04:05:50;6.93;;;5.30;;
11671;SDS011;5892;43.412;24.612;2022-11-18T04:08:26;6.03;;;5.43;;
11671;SDS011;5892;43.412;24.612;2022-11-18T04:11:00;6.57;;;5.30;;
11671;SDS011;5892;43.412;24.612;2022-11-18T04:13:34;5.07;;;4.53;;
11671;SDS011;5892;43.412;24.612;2022-11-18T04:16:04;4.60;;;4.20;;
11671;SDS011;5892;43.412;24.612;2022-11-18T04:18:33;4.97;;;4.20;;
11671;SDS011;5892;43.412;24.612;2022-11-18T04:21:01;4.80;;;4.30;;
11671;SDS011;5892;43.412;24.612;2022-11-18T04:23:28;4.20;;;3.80;;
11671;SDS011;5892;43.412;24.612;2022-11-18T04:25:54;4.47;;;4.07;;
11671;SDS011;5892;43.412;24.612;2022-11-18T04:28:22;4.83;;;4.20;;
11671;SDS011;5892;43.412;24.612;2022-11-18T04:30:48;4.43;;;4.03;;
11671;SDS011;5892;43.412;24.612;2022-11-18T04:33:17;4.67;;;4.23;;
11671;SDS011;5892;43.412;24.612;2022-11-18T04:35:45;4.80;;;4.40;;
11671;SDS011;5892;43.412;24.612;2022-11-18T04:38:12;4.40;;;4.00;;
11671;SDS011;5892;43.412;24.612;2022-11-18T04:40:39;5.20;;;4.40;;
11671;SDS011;5892;43.412;24.612;2022-11-18T04:43:06;7.30;;;4.30;;
11671;SDS011;5892;43.412;24.612;2022-11-18T04:45:32;4.10;;;3.70;;
11671;SDS011;5892;43.412;24.612;2022-11-18T04:47:59;5.47;;;4.30;;
11671;SDS011;5892;43.412;24.612;2022-11-18T04:50:28;4.67;;;4.27;;
11671;SDS011;5892;43.412;24.612;2022-11-18T04:52:55;4.67;;;4.20;;
11671;SDS011;5892;43.412;24.612;2022-11-18T04:55:22;4.40;;;4.00;;
11671;SDS011;5892;43.412;24.612;2022-11-18T04:57:51;5.03;;;4.33;;
11671;SDS011;5892;43.412;24.612;2022-11-18T05:00:18;5.20;;;4.50;;
11671;SDS011;5892;43.412;24.612;2022-11-18T05:02:47;4.73;;;4.33;;
11671;SDS011;5892;43.412;24.612;2022-11-18T05:05:15;6.37;;;4.83;;
11671;SDS011;5892;43.412;24.612;2022-11-18T05:07:43;5.17;;;4.73;;
11671;SDS011;5892;43.412;24.612;2022-11-18T05:10:10;5.20;;;4.20;;
11671;SDS011;5892;43.412;24.612;2022-11-18T05:12:37;4.80;;;4.30;;
11671;SDS011;5892;43.412;24.612;2022-11-18T05:15:16;4.93;;;4.43;;
11671;SDS011;5892;43.412;24.612;2022-11-18T05:17:44;7.97;;;4.23;;
11671;SDS011;5892;43.412;24.612;2022-11-18T05:20:12;6.50;;;5.73;;
11671;SDS011;5892;43.412;24.612;2022-11-18T05:22:39;5.10;;;4.57;;
11671;SDS011;5892;43.412;24.612;2022-11-18T05:25:08;6.20;;;3.90;;
11671;SDS011;5892;43.412;24.612;2022-11-18T05:27:35;5.30;;;4.37;;
11671;SDS011;5892;43.412;24.612;2022-11-18T05:30:05;4.27;;;3.80;;
11671;SDS011;5892;43.412;24.612;2022-11-18T05:32:32;9.57;;;4.70;;
11671;SDS011;5892;43.412;24.612;2022-11-18T05:34:59;4.97;;;3.87;;
11671;SDS011;5892;43.412;24.612;2022-11-18T05:37:26;6.43;;;3.90;;
11671;SDS011;5892;43.412;24.612;2022-11-18T05:39:53;4.67;;;3.90;;
11671;SDS011;5892;43.412;24.612;2022-11-18T05:42:22;6.87;;;4.37;;
11671;SDS011;5892;43.412;24.612;2022-11-18T05:45:06;8.20;;;4.47;;
11671;SDS011;5892;43.412;24.612;2022-11-18T05:47:33;10.73;;;8.50;;
11671;SDS011;5892;43.412;24.612;2022-11-18T05:50:20;21.37;;;11.33;;
11671;SDS011;5892;43.412;24.612;2022-11-18T05:52:47;21.10;;;11.57;;
11671;SDS011;5892;43.412;24.612;2022-11-18T05:55:14;11.27;;;6.97;;
11671;SDS011;5892;43.412;24.612;2022-11-18T05:57:46;11.40;;;7.60;;
11671;SDS011;5892;43.412;24.612;2022-11-18T06:00:13;11.33;;;8.17;;
11671;SDS011;5892;43.412;24.612;2022-11-18T06:02:41;8.93;;;6.27;;
11671;SDS011;5892;43.412;24.612;2022-11-18T06:05:12;8.57;;;6.10;;
11671;SDS011;5892;43.412;24.612;2022-11-18T06:07:40;6.97;;;4.87;;
11671;SDS011;5892;43.412;24.612;2022-11-18T06:10:09;15.00;;;7.90;;
11671;SDS011;5892;43.412;24.612;2022-11-18T06:12:39;42.40;;;18.67;;
11671;SDS011;5892;43.412;24.612;2022-11-18T06:15:11;48.90;;;21.27;;
11671;SDS011;5892;43.412;24.612;2022-11-18T06:17:44;18.80;;;9.17;;
11671;SDS011;5892;43.412;24.612;2022-11-18T06:20:16;18.57;;;7.90;;
11671;SDS011;5892;43.412;24.612;2022-11-18T06:22:44;6.80;;;4.73;;
11671;SDS011;5892;43.412;24.612;2022-11-18T06:25:12;5.93;;;3.97;;
11671;SDS011;5892;43.412;24.612;2022-11-18T06:27:40;18.90;;;16.83;;
11671;SDS011;5892;43.412;24.612;2022-11-18T06:30:08;8.33;;;5.33;;
11671;SDS011;5892;43.412;24.612;2022-11-18T06:32:37;11.73;;;4.87;;
11671;SDS011;5892;43.412;24.612;2022-11-18T06:35:05;9.97;;;5.20;;
11671;SDS011;5892;43.412;24.612;2022-11-18T06:37:33;9.40;;;5.40;;
11671;SDS011;5892;43.412;24.612;2022-11-18T06:39:59;24.80;;;9.10;;
11671;SDS011;5892;43.412;24.612;2022-11-18T06:42:26;23.03;;;10.23;;
11671;SDS011;5892;43.412;24.612;2022-11-18T06:45:08;15.13;;;10.67;;
11671;SDS011;5892;43.412;24.612;2022-11-18T06:47:36;31.20;;;19.13;;
11671;SDS011;5892;43.412;24.612;2022-11-18T06:50:02;29.20;;;19.97;;
11671;SDS011;5892;43.412;24.612;2022-11-18T06:52:30;38.83;;;20.17;;
11671;SDS011;5892;43.412;24.612;2022-11-18T06:54:57;29.37;;;19.43;;
11671;SDS011;5892;43.412;24.612;2022-11-18T06:57:24;28.77;;;18.23;;
11671;SDS011;5892;43.412;24.612;2022-11-18T06:59:51;28.97;;;18.57;;
11671;SDS011;5892;43.412;24.612;2022-11-18T07:02:18;32.17;;;17.33;;
11671;SDS011;5892;43.412;24.612;2022-11-18T07:04:46;28.80;;;17.07;;
11671;SDS011;5892;43.412;24.612;2022-11-18T07:07:13;29.13;;;16.13;;
11671;SDS011;5892;43.412;24.612;2022-11-18T07:09:40;26.63;;;16.03;;
11671;SDS011;5892;43.412;24.612;2022-11-18T07:12:07;24.40;;;16.40;;
11671;SDS011;5892;43.412;24.612;2022-11-18T07:14:34;22.70;;;15.23;;
11671;SDS011;5892;43.412;24.612;2022-11-18T07:17:01;28.37;;;17.60;;
11671;SDS011;5892;43.412;24.612;2022-11-18T07:19:28;26.30;;;16.30;;
11671;SDS011;5892;43.412;24.612;2022-11-18T07:21:56;25.03;;;16.23;;
11671;SDS011;5892;43.412;24.612;2022-11-18T07:24:24;25.23;;;16.20;;
11671;SDS011;5892;43.412;24.612;2022-11-18T07:26:51;21.20;;;14.90;;
11671;SDS011;5892;43.412;24.612;2022-11-18T07:29:18;27.70;;;15.33;;
11671;SDS011;5892;43.412;24.612;2022-11-18T07:31:45;22.10;;;14.13;;
11671;SDS011;5892;43.412;24.612;2022-11-18T07:34:12;22.37;;;14.57;;
11671;SDS011;5892;43.412;24.612;2022-11-18T07:36:39;26.07;;;14.10;;
11671;SDS011;5892;43.412;24.612;2022-11-18T07:39:08;22.67;;;13.20;;
11671;SDS011;5892;43.412;24.612;2022-11-18T07:41:35;24.07;;;14.60;;
11671;SDS011;5892;43.412;24.612;2022-11-18T07:44:04;19.90;;;13.97;;
11671;SDS011;5892;43.412;24.612;2022-11-18T07:46:32;25.07;;;14.10;;
11671;SDS011;5892;43.412;24.612;2022-11-18T07:49:00;20.13;;;14.10;;
11671;SDS011;5892;43.412;24.612;2022-11-18T07:51:30;24.40;;;14.27;;
11671;SDS011;5892;43.412;24.612;2022-11-18T07:53:58;23.30;;;14.00;;
11671;SDS011;5892;43.412;24.612;2022-11-18T07:56:27;23.83;;;14.10;;
11671;SDS011;5892;43.412;24.612;2022-11-18T07:58:54;19.67;;;13.60;;
11671;SDS011;5892;43.412;24.612;2022-11-18T08:01:22;20.03;;;13.00;;
11671;SDS011;5892;43.412;24.612;2022-11-18T08:03:51;20.67;;;12.53;;
11671;SDS011;5892;43.412;24.612;2022-11-18T08:06:18;19.57;;;13.47;;
11671;SDS011;5892;43.412;24.612;2022-11-18T08:08:45;19.67;;;13.00;;
11671;SDS011;5892;43.412;24.612;2022-11-18T08:11:13;27.77;;;14.57;;
11671;SDS011;5892;43.412;24.612;2022-11-18T08:13:43;23.03;;;15.73;;
11671;SDS011;5892;43.412;24.612;2022-11-18T08:16:11;24.93;;;16.13;;
11671;SDS011;5892;43.412;24.612;2022-11-18T08:18:40;24.97;;;16.93;;
11671;SDS011;5892;43.412;24.612;2022-11-18T08:21:07;22.40;;;18.17;;
11671;SDS011;5892;43.412;24.612;2022-11-18T08:23:35;27.67;;;19.43;;
11671;SDS011;5892;43.412;24.612;2022-11-18T08:26:02;28.70;;;20.03;;
11671;SDS011;5892;43.412;24.612;2022-11-18T08:28:30;26.90;;;19.80;;
11671;SDS011;5892;43.412;24.612;2022-11-18T08:30:59;23.30;;;19.63;;
11671;SDS011;5892;43.412;24.612;2022-11-18T08:33:26;25.13;;;16.97;;
11671;SDS011;5892;43.412;24.612;2022-11-18T08:35:52;23.70;;;17.23;;
11671;SDS011;5892;43.412;24.612;2022-11-18T08:38:19;19.97;;;16.00;;
11671;SDS011;5892;43.412;24.612;2022-11-18T08:40:46;22.67;;;15.50;;
11671;SDS011;5892;43.412;24.612;2022-11-18T08:43:13;20.23;;;14.87;;
11671;SDS011;5892;43.412;24.612;2022-11-18T08:45:40;20.87;;;13.60;;
11671;SDS011;5892;43.412;24.612;2022-11-18T08:48:09;9.33;;;8.20;;
11671;SDS011;5892;43.412;24.612;2022-11-18T08:50:36;11.13;;;8.30;;
11671;SDS011;5892;43.412;24.612;2022-11-18T08:53:03;7.53;;;5.10;;
11671;SDS011;5892;43.412;24.612;2022-11-18T08:55:30;8.03;;;6.10;;
11671;SDS011;5892;43.412;24.612;2022-11-18T08:57:56;8.23;;;6.20;;
11671;SDS011;5892;43.412;24.612;2022-11-18T09:00:23;11.67;;;8.13;;
11671;SDS011;5892;43.412;24.612;2022-11-18T09:02:50;12.80;;;8.80;;
11671;SDS011;5892;43.412;24.612;2022-11-18T09:05:19;11.73;;;8.43;;
11671;SDS011;5892;43.412;24.612;2022-11-18T09:07:45;15.27;;;9.33;;
11671;SDS011;5892;43.412;24.612;2022-11-18T09:10:12;12.17;;;8.13;;
11671;SDS011;5892;43.412;24.612;2022-11-18T09:12:39;13.57;;;9.57;;
11671;SDS011;5892;43.412;24.612;2022-11-18T09:15:07;18.33;;;11.13;;
11671;SDS011;5892;43.412;24.612;2022-11-18T09:17:34;17.90;;;9.87;;
11671;SDS011;5892;43.412;24.612;2022-11-18T09:20:01;14.17;;;9.60;;
11671;SDS011;5892;43.412;24.612;2022-11-18T09:22:29;15.27;;;10.07;;
11671;SDS011;5892;43.412;24.612;2022-11-18T09:24:56;17.70;;;11.20;;
11671;SDS011;5892;43.412;24.612;2022-11-18T09:27:23;16.03;;;11.00;;
11671;SDS011;5892;43.412;24.612;2022-11-18T09:29:50;14.73;;;11.00;;
11671;SDS011;5892;43.412;24.612;2022-11-18T09:32:17;16.77;;;11.10;;
11671;SDS011;5892;43.412;24.612;2022-11-18T09:34:44;15.07;;;10.17;;
11671;SDS011;5892;43.412;24.612;2022-11-18T09:37:10;15.03;;;9.77;;
11671;SDS011;5892;43.412;24.612;2022-11-18T09:39:39;15.83;;;9.03;;
11671;SDS011;5892;43.412;24.612;2022-11-18T09:42:12;23.20;;;9.60;;
11671;SDS011;5892;43.412;24.612;2022-11-18T09:47:42;9.93;;;5.07;;
11671;SDS011;5892;43.412;24.612;2022-11-18T09:50:10;8.50;;;3.97;;
11671;SDS011;5892;43.412;24.612;2022-11-18T09:52:39;7.60;;;3.60;;
11671;SDS011;5892;43.412;24.612;2022-11-18T09:55:14;10.40;;;4.50;;
11671;SDS011;5892;43.412;24.612;2022-11-18T09:57:43;7.40;;;4.23;;
11671;SDS011;5892;43.412;24.612;2022-11-18T10:00:13;6.27;;;3.77;;
11671;SDS011;5892;43.412;24.612;2022-11-18T10:02:46;5.10;;;2.40;;
11671;SDS011;5892;43.412;24.612;2022-11-18T10:05:19;3.77;;;1.87;;
11671;SDS011;5892;43.412;24.612;2022-11-18T10:07:55;3.17;;;2.13;;
11671;SDS011;5892;43.412;24.612;2022-11-18T10:10:37;3.03;;;2.33;;
11671;SDS011;5892;43.412;24.612;2022-11-18T10:13:12;8.07;;;4.07;;
11671;SDS011;5892;43.412;24.612;2022-11-18T10:15:52;4.80;;;2.40;;
11671;SDS011;5892;43.412;24.612;2022-11-18T10:18:27;5.47;;;1.80;;
11671;SDS011;5892;43.412;24.612;2022-11-18T10:21:01;6.37;;;1.70;;
11671;SDS011;5892;43.412;24.612;2022-11-18T10:23:38;6.53;;;1.90;;
11671;SDS011;5892;43.412;24.612;2022-11-18T10:26:13;3.53;;;1.80;;
11671;SDS011;5892;43.412;24.612;2022-11-18T10:28:39;4.80;;;1.90;;
11671;SDS011;5892;43.412;24.612;2022-11-18T10:31:07;5.30;;;1.87;;
11671;SDS011;5892;43.412;24.612;2022-11-18T10:33:36;2.83;;;1.73;;
11671;SDS011;5892;43.412;24.612;2022-11-18T10:36:08;5.07;;;1.90;;
11671;SDS011;5892;43.412;24.612;2022-11-18T10:38:37;3.97;;;1.97;;
11671;SDS011;5892;43.412;24.612;2022-11-18T10:41:05;1.97;;;1.70;;
11671;SDS011;5892;43.412;24.612;2022-11-18T10:43:44;3.83;;;1.70;;
11671;SDS011;5892;43.412;24.612;2022-11-18T10:46:18;2.53;;;1.60;;
11671;SDS011;5892;43.412;24.612;2022-11-18T10:51:37;3.00;;;1.57;;
11671;SDS011;5892;43.412;24.612;2022-11-18T10:54:06;2.30;;;1.80;;
11671;SDS011;5892;43.412;24.612;2022-11-18T10:56:42;2.20;;;1.80;;
11671;SDS011;5892;43.412;24.612;2022-11-18T10:59:13;4.20;;;1.90;;
11671;SDS011;5892;43.412;24.612;2022-11-18T11:01:55;4.10;;;1.80;;
11671;SDS011;5892;43.412;24.612;2022-11-18T11:04:24;2.97;;;1.70;;
11671;SDS011;5892;43.412;24.612;2022-11-18T11:06:51;2.47;;;1.70;;
11671;SDS011;5892;43.412;24.612;2022-11-18T11:09:22;1.50;;;1.30;;
11671;SDS011;5892;43.412;24.612;2022-11-18T11:11:57;4.37;;;2.00;;
11671;SDS011;5892;43.412;24.612;2022-11-18T11:14:29;3.03;;;1.70;;
11671;SDS011;5892;43.412;24.612;2022-11-18T11:17:03;4.27;;;1.50;;
11671;SDS011;5892;43.412;24.612;2022-11-18T11:19:41;5.30;;;1.80;;
11671;SDS011;5892;43.412;24.612;2022-11-18T11:22:14;3.23;;;1.60;;
11671;SDS011;5892;43.412;24.612;2022-11-18T11:24:42;3.33;;;1.30;;
11671;SDS011;5892;43.412;24.612;2022-11-18T11:27:14;3.00;;;1.80;;
11671;SDS011;5892;43.412;24.612;2022-11-18T11:30:02;1.97;;;1.50;;
11671;SDS011;5892;43.412;24.612;2022-11-18T11:33:02;2.07;;;1.70;;
11671;SDS011;5892;43.412;24.612;2022-11-18T11:35:53;4.60;;;1.60;;
11671;SDS011;5892;43.412;24.612;2022-11-18T11:38:32;19.07;;;8.40;;
11671;SDS011;5892;43.412;24.612;2022-11-18T11:41:05;8.63;;;4.27;;
11671;SDS011;5892;43.412;24.612;2022-11-18T11:43:41;5.80;;;2.57;;
11671;SDS011;5892;43.412;24.612;2022-11-18T11:46:25;3.23;;;1.63;;
11671;SDS011;5892;43.412;24.612;2022-11-18T11:48:56;3.80;;;1.83;;
11671;SDS011;5892;43.412;24.612;2022-11-18T11:51:33;8.13;;;2.63;;
11671;SDS011;5892;43.412;24.612;2022-11-18T11:54:09;2.50;;;1.80;;
11671;SDS011;5892;43.412;24.612;2022-11-18T11:56:43;3.83;;;1.90;;
11671;SDS011;5892;43.412;24.612;2022-11-18T11:59:16;4.50;;;1.73;;
11671;SDS011;5892;43.412;24.612;2022-11-18T12:02:15;5.27;;;1.93;;
11671;SDS011;5892;43.412;24.612;2022-11-18T12:04:55;1.93;;;1.37;;
11671;SDS011;5892;43.412;24.612;2022-11-18T12:07:27;3.73;;;1.60;;
11671;SDS011;5892;43.412;24.612;2022-11-18T12:12:59;12.30;;;7.63;;
11671;SDS011;5892;43.412;24.612;2022-11-18T12:15:39;11.03;;;6.63;;
11671;SDS011;5892;43.412;24.612;2022-11-18T12:18:16;6.63;;;4.00;;
11671;SDS011;5892;43.412;24.612;2022-11-18T12:20:48;4.00;;;2.50;;
11671;SDS011;5892;43.412;24.612;2022-11-18T12:23:17;9.10;;;2.67;;
11671;SDS011;5892;43.412;24.612;2022-11-18T12:25:55;5.37;;;2.50;;
11671;SDS011;5892;43.412;24.612;2022-11-18T12:28:28;2.20;;;1.47;;
11671;SDS011;5892;43.412;24.612;2022-11-18T12:34:18;5.77;;;2.30;;
11671;SDS011;5892;43.412;24.612;2022-11-18T12:36:54;4.70;;;2.80;;
11671;SDS011;5892;43.412;24.612;2022-11-18T12:42:35;3.50;;;2.40;;
11671;SDS011;5892;43.412;24.612;2022-11-18T12:45:36;7.50;;;4.20;;
11671;SDS011;5892;43.412;24.612;2022-11-18T12:48:29;3.13;;;1.80;;
11671;SDS011;5892;43.412;24.612;2022-11-18T12:50:59;5.57;;;1.70;;
11671;SDS011;5892;43.412;24.612;2022-11-18T12:53:32;3.83;;;1.70;;
11671;SDS011;5892;43.412;24.612;2022-11-18T12:56:09;4.27;;;1.90;;
11671;SDS011;5892;43.412;24.612;2022-11-18T12:58:46;9.70;;;4.37;;
11671;SDS011;5892;43.412;24.612;2022-11-18T13:01:15;7.03;;;4.40;;
11671;SDS011;5892;43.412;24.612;2022-11-18T13:03:44;9.07;;;3.33;;
11671;SDS011;5892;43.412;24.612;2022-11-18T13:06:15;13.53;;;6.97;;
11671;SDS011;5892;43.412;24.612;2022-11-18T13:08:54;7.93;;;4.00;;
11671;SDS011;5892;43.412;24.612;2022-11-18T13:11:23;12.20;;;5.50;;
11671;SDS011;5892;43.412;24.612;2022-11-18T13:14:12;4.57;;;2.43;;
11671;SDS011;5892;43.412;24.612;2022-11-18T13:16:59;5.83;;;2.47;;
11671;SDS011;5892;43.412;24.612;2022-11-18T13:19:52;5.43;;;2.70;;
11671;SDS011;5892;43.412;24.612;2022-11-18T13:22:22;4.70;;;2.50;;
11671;SDS011;5892;43.412;24.612;2022-11-18T13:25:20;2.77;;;2.10;;
11671;SDS011;5892;43.412;24.612;2022-11-18T13:27:50;5.40;;;2.50;;
11671;SDS011;5892;43.412;24.612;2022-11-18T13:30:23;8.40;;;3.20;;
11671;SDS011;5892;43.412;24.612;2022-11-18T13:32:50;8.40;;;4.07;;
11671;SDS011;5892;43.412;24.612;2022-11-18T13:35:23;6.50;;;3.37;;
11671;SDS011;5892;43.412;24.612;2022-11-18T13:37:55;5.30;;;2.90;;
11671;SDS011;5892;43.412;24.612;2022-11-18T13:40:25;3.33;;;2.60;;
11671;SDS011;5892;43.412;24.612;2022-11-18T13:42:53;6.03;;;2.70;;
11671;SDS011;5892;43.412;24.612;2022-11-18T13:45:21;4.73;;;2.60;;
11671;SDS011;5892;43.412;24.612;2022-11-18T13:47:51;6.47;;;2.73;;
11671;SDS011;5892;43.412;24.612;2022-11-18T13:50:21;7.13;;;3.80;;
11671;SDS011;5892;43.412;24.612;2022-11-18T13:52:57;4.27;;;2.63;;
11671;SDS011;5892;43.412;24.612;2022-11-18T13:55:32;5.23;;;2.90;;
11671;SDS011;5892;43.412;24.612;2022-11-18T13:58:02;7.77;;;4.53;;
11671;SDS011;5892;43.412;24.612;2022-11-18T14:00:33;7.67;;;3.60;;
11671;SDS011;5892;43.412;24.612;2022-11-18T14:03:03;5.57;;;3.80;;
11671;SDS011;5892;43.412;24.612;2022-11-18T14:05:51;8.97;;;3.93;;
11671;SDS011;5892;43.412;24.612;2022-11-18T14:08:22;4.70;;;2.83;;
11671;SDS011;5892;43.412;24.612;2022-11-18T14:10:52;4.07;;;2.77;;
11671;SDS011;5892;43.412;24.612;2022-11-18T14:13:22;5.07;;;2.30;;
11671;SDS011;5892;43.412;24.612;2022-11-18T14:15:51;5.07;;;2.23;;
11671;SDS011;5892;43.412;24.612;2022-11-18T14:18:20;5.53;;;2.50;;
11671;SDS011;5892;43.412;24.612;2022-11-18T14:20:54;3.83;;;2.77;;
11671;SDS011;5892;43.412;24.612;2022-11-18T14:23:25;6.07;;;2.50;;
11671;SDS011;5892;43.412;24.612;2022-11-18T14:25:54;5.03;;;2.50;;
11671;SDS011;5892;43.412;24.612;2022-11-18T14:28:22;4.10;;;2.50;;
11671;SDS011;5892;43.412;24.612;2022-11-18T14:34:02;5.17;;;3.03;;
11671;SDS011;5892;43.412;24.612;2022-11-18T14:36:30;5.67;;;3.03;;
11671;SDS011;5892;43.412;24.612;2022-11-18T14:38:59;7.20;;;3.20;;
11671;SDS011;5892;43.412;24.612;2022-11-18T14:41:25;6.27;;;3.10;;
11671;SDS011;5892;43.412;24.612;2022-11-18T14:44:10;4.87;;;3.10;;
11671;SDS011;5892;43.412;24.612;2022-11-18T14:46:37;5.53;;;3.37;;
11671;SDS011;5892;43.412;24.612;2022-11-18T14:49:09;13.90;;;9.37;;
11671;SDS011;5892;43.412;24.612;2022-11-18T14:51:38;19.53;;;15.53;;
11671;SDS011;5892;43.412;24.612;2022-11-18T14:54:10;38.00;;;29.23;;
11671;SDS011;5892;43.412;24.612;2022-11-18T14:56:38;23.50;;;16.93;;
11671;SDS011;5892;43.412;24.612;2022-11-18T14:59:05;19.13;;;12.47;;
11671;SDS011;5892;43.412;24.612;2022-11-18T15:01:32;7.67;;;4.50;;
11671;SDS011;5892;43.412;24.612;2022-11-18T15:03:59;6.67;;;3.83;;
11671;SDS011;5892;43.412;24.612;2022-11-18T15:06:26;12.07;;;10.57;;
11671;SDS011;5892;43.412;24.612;2022-11-18T15:08:53;9.87;;;7.37;;
11671;SDS011;5892;43.412;24.612;2022-11-18T15:11:21;6.87;;;3.70;;
11671;SDS011;5892;43.412;24.612;2022-11-18T15:13:48;20.13;;;10.40;;
11671;SDS011;5892;43.412;24.612;2022-11-18T15:16:17;7.37;;;5.37;;
11671;SDS011;5892;43.412;24.612;2022-11-18T15:18:46;7.23;;;4.70;;
11671;SDS011;5892;43.412;24.612;2022-11-18T15:21:15;18.83;;;9.47;;
11671;SDS011;5892;43.412;24.612;2022-11-18T15:23:42;9.07;;;5.63;;